PWSweather.com
Personal Weather Stations
Station Observations
CARLINA
Ossola, MaseraIT 28855

OssolaMaseraIT 28855

Lat: 46.135, Lon: 8.32

Elevation: 984.25

Station Type: Davis Vantage Pro 2+

http://meteoandreabetlamini.altervista.org/

High Low Average
Temperature 0.0°F0.0°F 0.0°F0.0°F 0.0°F0.0°F
Dew Point 0.0°F0.0°F 0.0°F0.0°F 0.0°F0.0°F
Winds Calm -Calm - Calm Calm Calm Calm
Wind Gusts -- -- --
Humidity 0% 0% 0%
Pressure 0.00 in0.00 in 0.00 in0.00 in -
Precipitation 0.00 in0.0 mm - -
Hour Temp Dew Point Humidity Winds Wind Gusts Pressure Precip Precip Rate Daily Precip Total
12:00 AM 60.0°F15.6°C 59.1°F15.1°C 97% Calm Calm -- 29.95 in1014.2 mb 0.02 in0.5 mm 0.00 in0.0 mm 0.02 in0.5 mm
12:15 AM 59.8°F15.4°C 58.9°F14.9°C 97% Calm Calm -- 29.95 in1014.2 mb 0.00 in0.0 mm 0.00 in0.0 mm 0.02 in0.5 mm
12:30 AM 59.8°F15.4°C 58.9°F14.9°C 97% Calm Calm -- 29.94 in1013.9 mb 0.00 in0.0 mm 0.00 in0.0 mm 0.02 in0.5 mm
12:45 AM 59.8°F15.4°C 58.9°F14.9°C 97% Calm Calm -- 29.94 in1013.9 mb 0.01 in0.3 mm 0.04 in1.0 mm 0.02 in0.5 mm
01:00 AM 59.7°F15.4°C 58.8°F14.9°C 97% Calm Calm -- 29.94 in1013.9 mb 0.01 in0.3 mm 0.00 in0.0 mm 0.02 in0.5 mm
01:15 AM 59.6°F15.3°C 58.7°F14.8°C 97% Calm Calm -- 29.94 in1013.9 mb 0.01 in0.3 mm 0.00 in0.0 mm 0.02 in0.5 mm
01:30 AM 59.5°F15.3°C 58.6°F14.8°C 97% Calm Calm -- 29.94 in1013.9 mb 0.01 in0.3 mm 0.00 in0.0 mm 0.02 in0.5 mm
01:45 AM 59.4°F15.2°C 58.5°F14.7°C 97% Calm Calm -- 29.93 in1013.5 mb 0.00 in0.0 mm 0.00 in0.0 mm 0.02 in0.5 mm
02:00 AM 59.2°F15.1°C 58.3°F14.6°C 97% Calm Calm -- 29.93 in1013.5 mb 0.00 in0.0 mm 0.00 in0.0 mm 0.02 in0.5 mm
02:15 AM 59.2°F15.1°C 58.3°F14.6°C 97% Calm Calm -- 29.93 in1013.5 mb 0.00 in0.0 mm 0.00 in0.0 mm 0.02 in0.5 mm
02:30 AM 59.0°F15.0°C 58.2°F14.6°C 97% Calm Calm -- 29.93 in1013.5 mb 0.01 in0.3 mm 0.04 in1.0 mm 0.03 in0.8 mm
02:45 AM 59.0°F15.0°C 58.4°F14.7°C 98% Calm Calm -- 29.93 in1013.5 mb 0.01 in0.3 mm 0.00 in0.0 mm 0.03 in0.8 mm
03:00 AM 58.9°F14.9°C 58.3°F14.6°C 98% Calm Calm -- 29.93 in1013.5 mb 0.01 in0.3 mm 0.00 in0.0 mm 0.03 in0.8 mm
03:15 AM 58.8°F14.9°C 58.2°F14.6°C 98% Calm Calm -- 29.92 in1013.2 mb 0.01 in0.3 mm 0.00 in0.0 mm 0.03 in0.8 mm
03:30 AM 58.8°F14.9°C 58.2°F14.6°C 98% Calm Calm -- 29.92 in1013.2 mb 0.01 in0.3 mm 0.00 in0.0 mm 0.04 in1.0 mm
03:45 AM 58.7°F14.8°C 58.1°F14.5°C 98% Calm Calm -- 29.91 in1012.9 mb 0.01 in0.3 mm 0.00 in0.0 mm 0.04 in1.0 mm
04:00 AM 58.6°F14.8°C 57.8°F14.3°C 97% Calm Calm -- 29.91 in1012.9 mb 0.01 in0.3 mm 0.00 in0.0 mm 0.04 in1.0 mm
04:15 AM 58.4°F14.7°C 57.8°F14.3°C 98% Calm Calm -- 29.91 in1012.9 mb 0.01 in0.3 mm 0.00 in0.0 mm 0.04 in1.0 mm
04:30 AM 58.3°F14.6°C 57.7°F14.3°C 98% Calm Calm -- 29.90 in1012.5 mb 0.00 in0.0 mm 0.00 in0.0 mm 0.04 in1.0 mm
04:45 AM 58.2°F14.6°C 57.6°F14.2°C 98% Calm Calm 1.0 mph1.6 kmh 29.90 in1012.5 mb 0.00 in0.0 mm 0.00 in0.0 mm 0.04 in1.0 mm
05:00 AM 58.2°F14.6°C 57.6°F14.2°C 98% Calm Calm -- 29.90 in1012.5 mb 0.00 in0.0 mm 0.00 in0.0 mm 0.04 in1.0 mm
05:15 AM 58.2°F14.6°C 57.6°F14.2°C 98% Calm Calm -- 29.90 in1012.5 mb 0.00 in0.0 mm 0.00 in0.0 mm 0.04 in1.0 mm
05:30 AM 58.2°F14.6°C 57.6°F14.2°C 98% Calm Calm -- 29.90 in1012.5 mb 0.00 in0.0 mm 0.00 in0.0 mm 0.04 in1.0 mm
05:45 AM 58.3°F14.6°C 57.7°F14.3°C 98% Calm Calm -- 29.89 in1012.2 mb 0.00 in0.0 mm 0.00 in0.0 mm 0.04 in1.0 mm
06:00 AM 58.4°F14.7°C 57.8°F14.3°C 98% Calm Calm -- 29.89 in1012.2 mb 0.00 in0.0 mm 0.00 in0.0 mm 0.04 in1.0 mm
06:15 AM 58.6°F14.8°C 58.0°F14.4°C 98% Calm Calm -- 29.89 in1012.2 mb 0.00 in0.0 mm 0.00 in0.0 mm 0.04 in1.0 mm
06:30 AM 58.7°F14.8°C 58.1°F14.5°C 98% Calm Calm -- 29.89 in1012.2 mb 0.00 in0.0 mm 0.00 in0.0 mm 0.04 in1.0 mm
06:45 AM 58.9°F14.9°C 58.3°F14.6°C 98% Calm Calm -- 29.89 in1012.2 mb 0.00 in0.0 mm 0.00 in0.0 mm 0.04 in1.0 mm
07:00 AM 59.2°F15.1°C 58.6°F14.8°C 98% Calm Calm -- 29.89 in1012.2 mb 0.00 in0.0 mm 0.00 in0.0 mm 0.04 in1.0 mm
07:15 AM 59.5°F15.3°C 58.9°F14.9°C 98% Calm Calm -- 29.90 in1012.5 mb 0.00 in0.0 mm 0.00 in0.0 mm 0.04 in1.0 mm
07:30 AM 59.6°F15.3°C 59.0°F15.0°C 98% Calm Calm -- 29.90 in1012.5 mb 0.00 in0.0 mm 0.00 in0.0 mm 0.04 in1.0 mm
07:45 AM 59.8°F15.4°C 59.2°F15.1°C 98% Calm Calm -- 29.90 in1012.5 mb 0.00 in0.0 mm 0.00 in0.0 mm 0.04 in1.0 mm
08:00 AM 60.3°F15.7°C 59.7°F15.4°C 98% Calm Calm -- 29.91 in1012.9 mb 0.00 in0.0 mm 0.00 in0.0 mm 0.04 in1.0 mm
08:15 AM 60.3°F15.7°C 59.4°F15.2°C 97% Calm Calm -- 29.91 in1012.9 mb 0.00 in0.0 mm 0.00 in0.0 mm 0.04 in1.0 mm
08:30 AM 60.6°F15.9°C 59.5°F15.3°C 96% Calm Calm 1.0 mph1.6 kmh 29.91 in1012.9 mb 0.00 in0.0 mm 0.00 in0.0 mm 0.04 in1.0 mm
08:45 AM 61.1°F16.2°C 59.7°F15.4°C 95% Calm Calm 1.0 mph1.6 kmh 29.91 in1012.9 mb 0.00 in0.0 mm 0.00 in0.0 mm 0.04 in1.0 mm
09:00 AM 61.8°F16.6°C 60.1°F15.6°C 94% Calm Calm -- 29.91 in1012.9 mb 0.00 in0.0 mm 0.00 in0.0 mm 0.04 in1.0 mm
09:15 AM 62.6°F17.0°C 60.5°F15.8°C 93% Calm Calm -- 29.91 in1012.9 mb 0.00 in0.0 mm 0.00 in0.0 mm 0.04 in1.0 mm
09:30 AM 63.3°F17.4°C 60.9°F16.1°C 92% Calm Calm 3.0 mph4.8 kmh 29.90 in1012.5 mb 0.00 in0.0 mm 0.00 in0.0 mm 0.04 in1.0 mm
09:45 AM 64.0°F17.8°C 60.4°F15.8°C 88% Calm Calm 3.0 mph4.8 kmh 29.90 in1012.5 mb 0.00 in0.0 mm 0.00 in0.0 mm 0.04 in1.0 mm
10:00 AM 65.2°F18.4°C 59.9°F15.5°C 83% Calm Calm 1.0 mph1.6 kmh 29.90 in1012.5 mb 0.00 in0.0 mm 0.00 in0.0 mm 0.04 in1.0 mm
10:15 AM 66.4°F19.1°C 62.1°F16.7°C 86% Calm Calm 1.0 mph1.6 kmh 29.90 in1012.5 mb 0.00 in0.0 mm 0.00 in0.0 mm 0.04 in1.0 mm
10:30 AM 67.5°F19.7°C 59.7°F15.4°C 76% Calm Calm 3.0 mph4.8 kmh 29.90 in1012.5 mb 0.00 in0.0 mm 0.00 in0.0 mm 0.04 in1.0 mm
10:45 AM 67.6°F19.8°C 60.1°F15.6°C 77% Calm Calm 2.0 mph3.2 kmh 29.90 in1012.5 mb 0.00 in0.0 mm 0.00 in0.0 mm 0.04 in1.0 mm
11:00 AM 68.3°F20.2°C 61.2°F16.2°C 78% Calm Calm 1.0 mph1.6 kmh 29.90 in1012.5 mb 0.00 in0.0 mm 0.00 in0.0 mm 0.04 in1.0 mm
11:15 AM 68.8°F20.4°C 61.7°F16.5°C 78% Calm Calm 4.0 mph6.4 kmh 29.90 in1012.5 mb 0.00 in0.0 mm 0.00 in0.0 mm 0.04 in1.0 mm
11:30 AM 69.1°F20.6°C 61.6°F16.4°C 77% Calm Calm 2.0 mph3.2 kmh 29.90 in1012.5 mb 0.00 in0.0 mm 0.00 in0.0 mm 0.04 in1.0 mm
11:45 AM 70.4°F21.3°C 61.3°F16.3°C 73% Calm Calm 5.0 mph8.0 kmh 29.90 in1012.5 mb 0.00 in0.0 mm 0.00 in0.0 mm 0.04 in1.0 mm
12:00 PM 71.3°F21.8°C 61.0°F16.1°C 70% Calm Calm 4.0 mph6.4 kmh 29.90 in1012.5 mb 0.00 in0.0 mm 0.00 in0.0 mm 0.04 in1.0 mm
12:15 PM 71.7°F22.1°C 63.4°F17.4°C 75% Calm Calm 2.0 mph3.2 kmh 29.89 in1012.2 mb 0.00 in0.0 mm 0.00 in0.0 mm 0.04 in1.0 mm
12:30 PM 71.4°F21.9°C 63.1°F17.3°C 75% 1.0 mph W1.6 kmh W 5.0 mph8.0 kmh 29.89 in1012.2 mb 0.00 in0.0 mm 0.00 in0.0 mm 0.04 in1.0 mm
12:45 PM 71.5°F21.9°C 62.8°F17.1°C 74% Calm Calm 2.0 mph3.2 kmh 29.89 in1012.2 mb 0.00 in0.0 mm 0.00 in0.0 mm 0.04 in1.0 mm
01:00 PM 71.9°F22.2°C 62.8°F17.1°C 73% Calm Calm 2.0 mph3.2 kmh 29.89 in1012.2 mb 0.00 in0.0 mm 0.00 in0.0 mm 0.04 in1.0 mm
01:15 PM 71.6°F22.0°C 62.5°F16.9°C 73% Calm Calm 4.0 mph6.4 kmh 29.88 in1011.9 mb 0.00 in0.0 mm 0.00 in0.0 mm 0.04 in1.0 mm
01:30 PM 72.2°F22.3°C 63.4°F17.4°C 74% Calm Calm 1.0 mph1.6 kmh 29.88 in1011.9 mb 0.00 in0.0 mm 0.00 in0.0 mm 0.04 in1.0 mm
01:45 PM 73.0°F22.8°C 63.8°F17.7°C 73% Calm Calm 4.0 mph6.4 kmh 29.88 in1011.9 mb 0.00 in0.0 mm 0.00 in0.0 mm 0.04 in1.0 mm
02:00 PM 74.1°F23.4°C 64.1°F17.8°C 71% Calm Calm 4.0 mph6.4 kmh 29.87 in1011.5 mb 0.00 in0.0 mm 0.00 in0.0 mm 0.04 in1.0 mm
02:15 PM 74.2°F23.4°C 64.2°F17.9°C 71% Calm Calm 3.0 mph4.8 kmh 29.87 in1011.5 mb 0.00 in0.0 mm 0.00 in0.0 mm 0.04 in1.0 mm
02:30 PM 74.1°F23.4°C 63.3°F17.4°C 69% Calm Calm 2.0 mph3.2 kmh 29.87 in1011.5 mb 0.00 in0.0 mm 0.00 in0.0 mm 0.04 in1.0 mm
02:45 PM 73.8°F23.2°C 62.6°F17.0°C 68% Calm Calm 3.0 mph4.8 kmh 29.87 in1011.5 mb 0.00 in0.0 mm 0.00 in0.0 mm 0.04 in1.0 mm
03:00 PM 73.6°F23.1°C 62.4°F16.9°C 68% Calm Calm 3.0 mph4.8 kmh 29.87 in1011.5 mb 0.00 in0.0 mm 0.00 in0.0 mm 0.04 in1.0 mm
03:15 PM 73.9°F23.3°C 63.5°F17.5°C 70% Calm Calm 2.0 mph3.2 kmh 29.87 in1011.5 mb 0.00 in0.0 mm 0.00 in0.0 mm 0.04 in1.0 mm
03:30 PM 74.6°F23.7°C 63.8°F17.7°C 69% Calm Calm 3.0 mph4.8 kmh 29.87 in1011.5 mb 0.00 in0.0 mm 0.00 in0.0 mm 0.04 in1.0 mm
03:45 PM 74.9°F23.8°C 63.2°F17.3°C 67% Calm Calm 3.0 mph4.8 kmh 29.87 in1011.5 mb 0.00 in0.0 mm 0.00 in0.0 mm 0.04 in1.0 mm
04:00 PM 74.5°F23.6°C 64.5°F18.1°C 71% Calm Calm 3.0 mph4.8 kmh 29.87 in1011.5 mb 0.00 in0.0 mm 0.00 in0.0 mm 0.04 in1.0 mm
04:15 PM 74.7°F23.7°C 65.1°F18.4°C 72% Calm Calm 2.0 mph3.2 kmh 29.86 in1011.2 mb 0.00 in0.0 mm 0.00 in0.0 mm 0.04 in1.0 mm
04:30 PM 74.7°F23.7°C 65.5°F18.6°C 73% Calm Calm 1.0 mph1.6 kmh 29.86 in1011.2 mb 0.00 in0.0 mm 0.00 in0.0 mm 0.04 in1.0 mm
04:45 PM 75.1°F23.9°C 64.2°F17.9°C 69% Calm Calm 2.0 mph3.2 kmh 29.86 in1011.2 mb 0.00 in0.0 mm 0.00 in0.0 mm 0.04 in1.0 mm
05:00 PM 76.9°F24.9°C 65.5°F18.6°C 68% Calm Calm 2.0 mph3.2 kmh 29.86 in1011.2 mb 0.00 in0.0 mm 0.00 in0.0 mm 0.04 in1.0 mm
05:15 PM 77.8°F25.4°C 65.1°F18.4°C 65% Calm Calm 3.0 mph4.8 kmh 29.86 in1011.2 mb 0.00 in0.0 mm 0.00 in0.0 mm 0.04 in1.0 mm
05:30 PM 77.8°F25.4°C 65.5°F18.6°C 66% Calm Calm 2.0 mph3.2 kmh 29.86 in1011.2 mb 0.00 in0.0 mm 0.00 in0.0 mm 0.04 in1.0 mm
05:45 PM 77.8°F25.4°C 64.2°F17.9°C 63% Calm Calm 3.0 mph4.8 kmh 29.86 in1011.2 mb 0.00 in0.0 mm 0.00 in0.0 mm 0.04 in1.0 mm
06:00 PM 77.3°F25.2°C 65.5°F18.6°C 67% Calm Calm 3.0 mph4.8 kmh 29.86 in1011.2 mb 0.00 in0.0 mm 0.00 in0.0 mm 0.04 in1.0 mm
06:15 PM 75.9°F24.4°C 62.8°F17.1°C 64% Calm Calm 2.0 mph3.2 kmh 29.87 in1011.5 mb 0.00 in0.0 mm 0.00 in0.0 mm 0.04 in1.0 mm
06:30 PM 76.8°F24.9°C 52.0°F11.1°C 42% 1.0 mph NE1.6 kmh NE 6.0 mph9.7 kmh 29.87 in1011.5 mb 0.00 in0.0 mm 0.00 in0.0 mm 0.04 in1.0 mm
06:45 PM 77.5°F25.3°C 51.9°F11.1°C 41% 2.0 mph NE3.2 kmh NE 8.0 mph12.9 kmh 29.88 in1011.9 mb 0.00 in0.0 mm 0.00 in0.0 mm 0.04 in1.0 mm
07:00 PM 76.0°F24.4°C 51.9°F11.1°C 43% 3.0 mph NE4.8 kmh NE 9.0 mph14.5 kmh 29.88 in1011.9 mb 0.00 in0.0 mm 0.00 in0.0 mm 0.04 in1.0 mm
07:15 PM 74.6°F23.7°C 50.6°F10.3°C 43% 2.0 mph NE3.2 kmh NE 8.0 mph12.9 kmh 29.89 in1012.2 mb 0.00 in0.0 mm 0.00 in0.0 mm 0.04 in1.0 mm
07:30 PM 73.7°F23.2°C 49.2°F9.6°C 42% 2.0 mph NE3.2 kmh NE 10.0 mph16.1 kmh 29.90 in1012.5 mb 0.00 in0.0 mm 0.00 in0.0 mm 0.04 in1.0 mm
07:45 PM 72.7°F22.6°C 53.5°F11.9°C 51% 1.0 mph NNE1.6 kmh NNE 5.0 mph8.0 kmh 29.91 in1012.9 mb 0.00 in0.0 mm 0.00 in0.0 mm 0.04 in1.0 mm
08:00 PM 70.8°F21.6°C 52.3°F11.3°C 52% 1.0 mph NNE1.6 kmh NNE 5.0 mph8.0 kmh 29.91 in1012.9 mb 0.00 in0.0 mm 0.00 in0.0 mm 0.04 in1.0 mm
08:15 PM 70.1°F21.2°C 48.4°F9.1°C 46% 1.0 mph NE1.6 kmh NE 4.0 mph6.4 kmh 29.92 in1013.2 mb 0.00 in0.0 mm 0.00 in0.0 mm 0.04 in1.0 mm
08:30 PM 70.1°F21.2°C 48.4°F9.1°C 46% 1.0 mph NE1.6 kmh NE 6.0 mph9.7 kmh 29.93 in1013.5 mb 0.00 in0.0 mm 0.00 in0.0 mm 0.04 in1.0 mm
08:45 PM 70.2°F21.2°C 49.0°F9.4°C 47% 1.0 mph NE1.6 kmh NE 6.0 mph9.7 kmh 29.93 in1013.5 mb 0.00 in0.0 mm 0.00 in0.0 mm 0.04 in1.0 mm
09:00 PM 70.1°F21.2°C 46.6°F8.1°C 43% 2.0 mph SE3.2 kmh SE 7.0 mph11.3 kmh 29.94 in1013.9 mb 0.00 in0.0 mm 0.00 in0.0 mm 0.04 in1.0 mm
09:15 PM 69.6°F20.9°C 46.7°F8.2°C 44% 2.0 mph NNE3.2 kmh NNE 9.0 mph14.5 kmh 29.95 in1014.2 mb 0.00 in0.0 mm 0.00 in0.0 mm 0.04 in1.0 mm
09:30 PM 69.1°F20.6°C 47.4°F8.6°C 46% 1.0 mph NNE1.6 kmh NNE 5.0 mph8.0 kmh 29.96 in1014.6 mb 0.00 in0.0 mm 0.00 in0.0 mm 0.04 in1.0 mm
09:45 PM 68.2°F20.1°C 44.8°F7.1°C 43% 1.0 mph NNE1.6 kmh NNE 7.0 mph11.3 kmh 29.96 in1014.6 mb 0.00 in0.0 mm 0.00 in0.0 mm 0.04 in1.0 mm
10:00 PM 68.5°F20.3°C 45.1°F7.3°C 43% 1.0 mph NE1.6 kmh NE 8.0 mph12.9 kmh 29.97 in1014.9 mb 0.00 in0.0 mm 0.00 in0.0 mm 0.04 in1.0 mm
10:15 PM 68.3°F20.2°C 45.5°F7.5°C 44% 1.0 mph NNE1.6 kmh NNE 8.0 mph12.9 kmh 29.98 in1015.2 mb 0.00 in0.0 mm 0.00 in0.0 mm 0.04 in1.0 mm
10:30 PM 67.7°F19.8°C 43.8°F6.6°C 42% 1.0 mph NE1.6 kmh NE 7.0 mph11.3 kmh 29.98 in1015.2 mb 0.00 in0.0 mm 0.00 in0.0 mm 0.04 in1.0 mm
10:45 PM 67.8°F19.9°C 44.5°F6.9°C 43% 2.0 mph NE3.2 kmh NE 6.0 mph9.7 kmh 29.98 in1015.2 mb 0.00 in0.0 mm 0.00 in0.0 mm 0.04 in1.0 mm
11:00 PM 67.9°F19.9°C 45.2°F7.3°C 44% 1.0 mph NE1.6 kmh NE 6.0 mph9.7 kmh 29.98 in1015.2 mb 0.00 in0.0 mm 0.00 in0.0 mm 0.04 in1.0 mm
11:15 PM 66.8°F19.3°C 47.0°F8.3°C 49% 1.0 mph NE1.6 kmh NE 7.0 mph11.3 kmh 29.98 in1015.2 mb 0.00 in0.0 mm 0.00 in0.0 mm 0.04 in1.0 mm
11:30 PM 66.3°F19.1°C 43.1°F6.2°C 43% 2.0 mph N3.2 kmh N 11.0 mph17.7 kmh 29.98 in1015.2 mb 0.00 in0.0 mm 0.00 in0.0 mm 0.04 in1.0 mm
11:45 PM 66.8°F19.3°C 47.0°F8.3°C 49% 1.0 mph NNW1.6 kmh NNW 8.0 mph12.9 kmh 29.99 in1015.6 mb 0.00 in0.0 mm 0.00 in0.0 mm 0.04 in1.0 mm